Time,TemperatureF,DewpointF,PressureIn,WindDirection,WindDirectionDegrees,WindSpeedMPH,WindSpeedGustMPH,Humidity,HourlyPrecipIn,Conditions,Clouds,dailyrainin,SoftwareType,DateUTC
2013-05-24 00:03:00,64.0,-99.9,29.83,South,169,29.0,32.0,-999,-99.99,,,-99.99,,2013-05-24 04:03:00,
2013-05-24 00:13:00,63.0,-99.9,29.82,SSE,166,26.0,30.0,-999,-99.99,,,-99.99,,2013-05-24 04:13:00,
2013-05-24 00:23:00,63.0,-99.9,29.82,SSE,166,26.0,29.0,-999,-99.99,,,-99.99,,2013-05-24 04:23:00,
2013-05-24 00:33:00,63.0,-99.9,29.81,SSE,163,25.0,29.0,-999,-99.99,,,-99.99,,2013-05-24 04:33:00,
2013-05-24 00:42:00,63.0,-99.9,29.80,SSE,162,24.0,28.0,-999,-99.99,,,-99.99,,2013-05-24 04:42:00,
2013-05-24 00:53:00,63.0,-99.9,29.81,SSE,158,23.0,28.0,-999,-99.99,,,-99.99,,2013-05-24 04:53:00,
2013-05-24 01:02:00,63.0,-99.9,29.81,SSE,164,24.0,29.0,-999,-99.99,,,-99.99,,2013-05-24 05:02:00,
2013-05-24 01:12:00,63.0,-99.9,29.80,SSE,162,26.0,35.0,-999,-99.99,,,-99.99,,2013-05-24 05:12:00,
2013-05-24 01:22:00,63.0,-99.9,29.79,SSE,159,21.0,28.0,-999,-99.99,,,-99.99,,2013-05-24 05:22:00,
2013-05-24 01:32:00,63.0,-99.9,29.79,SSE,153,19.0,25.0,-999,-99.99,,,-99.99,,2013-05-24 05:32:00,
2013-05-24 01:42:00,63.0,-99.9,29.78,SSE,158,20.0,23.0,-999,-99.99,,,-99.99,,2013-05-24 05:42:00,
2013-05-24 01:52:00,63.0,-99.9,29.78,SSE,162,20.0,24.0,-999,-99.99,,,-99.99,,2013-05-24 05:52:00,
2013-05-24 02:02:00,63.0,-99.9,29.77,SSE,164,20.0,22.0,-999,-99.99,,,-99.99,,2013-05-24 06:02:00,
2013-05-24 02:12:00,63.0,-99.9,29.77,SSE,161,19.0,21.0,-999,-99.99,,,-99.99,,2013-05-24 06:12:00,
2013-05-24 02:22:00,63.0,-99.9,29.76,SSE,166,17.0,19.0,-999,-99.99,,,-99.99,,2013-05-24 06:22:00,
2013-05-24 02:32:00,63.0,-99.9,29.76,SSE,168,14.0,19.0,-999,-99.99,,,-99.99,,2013-05-24 06:32:00,
2013-05-24 02:42:00,63.0,-99.9,29.75,SSE,162,16.0,18.0,-999,-99.99,,,-99.99,,2013-05-24 06:42:00,
2013-05-24 02:52:00,63.0,-99.9,29.75,South,172,19.0,21.0,-999,-99.99,,,-99.99,,2013-05-24 06:52:00,
2013-05-24 03:02:00,63.0,-99.9,29.74,SSE,163,19.0,24.0,-999,-99.99,,,-99.99,,2013-05-24 07:02:00,
2013-05-24 03:11:00,64.0,-99.9,29.73,SSE,164,23.0,29.0,-999,-99.99,,,-99.99,,2013-05-24 07:11:00,
2013-05-24 03:22:00,63.0,-99.9,29.72,SSE,153,17.0,24.0,-999,-99.99,,,-99.99,,2013-05-24 07:22:00,
2013-05-24 03:32:00,63.0,-99.9,29.71,SSE,157,19.0,22.0,-999,-99.99,,,-99.99,,2013-05-24 07:32:00,
2013-05-24 03:42:00,63.0,-99.9,29.70,SE,143,19.0,23.0,-999,-99.99,,,-99.99,,2013-05-24 07:42:00,
2013-05-24 03:52:00,63.0,-99.9,29.69,SSE,150,17.0,17.0,-999,-99.99,,,-99.99,,2013-05-24 07:52:00,
2013-05-24 04:02:00,63.0,-99.9,29.69,SSE,153,16.0,17.0,-999,-99.99,,,-99.99,,2013-05-24 08:02:00,
2013-05-24 04:11:00,63.0,-99.9,29.68,SSE,162,17.0,21.0,-999,-99.99,,,-99.99,,2013-05-24 08:11:00,
2013-05-24 04:22:00,63.0,-99.9,29.67,South,173,16.0,19.0,-999,-99.99,,,-99.99,,2013-05-24 08:22:00,
2013-05-24 04:33:00,63.0,-99.9,29.67,South,175,15.0,18.0,-999,-99.99,,,-99.99,,2013-05-24 08:33:00,
2013-05-24 04:42:00,63.0,-99.9,29.66,SSE,167,14.0,16.0,-999,-99.99,,,-99.99,,2013-05-24 08:42:00,
2013-05-24 04:52:00,63.0,-99.9,29.66,SSE,167,14.0,17.0,-999,-99.99,,,-99.99,,2013-05-24 08:52:00,
2013-05-24 05:02:00,63.0,-99.9,29.66,South,175,15.0,18.0,-999,-99.99,,,-99.99,,2013-05-24 09:02:00,
2013-05-24 05:11:00,63.0,-99.9,29.67,South,182,16.0,18.0,-999,-99.99,,,-99.99,,2013-05-24 09:11:00,
2013-05-24 05:22:00,63.0,-99.9,29.67,South,177,14.0,17.0,-999,-99.99,,,-99.99,,2013-05-24 09:22:00,
2013-05-24 05:33:00,63.0,-99.9,29.67,South,173,15.0,16.0,-999,-99.99,,,-99.99,,2013-05-24 09:33:00,
2013-05-24 05:42:00,63.0,-99.9,29.67,South,179,13.0,15.0,-999,-99.99,,,-99.99,,2013-05-24 09:42:00,
2013-05-24 05:53:00,63.0,-99.9,29.67,SSE,164,13.0,15.0,-999,-99.99,,,-99.99,,2013-05-24 09:53:00,
2013-05-24 06:03:00,63.0,-99.9,29.66,SSE,156,13.0,15.0,-999,-99.99,,,-99.99,,2013-05-24 10:03:00,
2013-05-24 06:12:00,63.0,-99.9,29.66,SSE,165,18.0,20.0,-999,-99.99,,,-99.99,,2013-05-24 10:12:00,
2013-05-24 06:23:00,63.0,-99.9,29.65,SSE,166,17.0,21.0,-999,-99.99,,,-99.99,,2013-05-24 10:23:00,
2013-05-24 06:33:00,63.0,-99.9,29.66,SSE,165,19.0,21.0,-999,-99.99,,,-99.99,,2013-05-24 10:33:00,
2013-05-24 06:42:00,63.0,-99.9,29.67,South,172,20.0,24.0,-999,-99.99,,,-99.99,,2013-05-24 10:42:00,
2013-05-24 06:53:00,62.0,-99.9,29.66,South,170,22.0,23.0,-999,-99.99,,,-99.99,,2013-05-24 10:53:00,
2013-05-24 07:02:00,62.0,-99.9,29.67,South,171,22.0,24.0,-999,-99.99,,,-99.99,,2013-05-24 11:02:00,
2013-05-24 07:12:00,62.0,-99.9,29.67,South,174,20.0,23.0,-999,-99.99,,,-99.99,,2013-05-24 11:12:00,
2013-05-24 07:23:00,62.0,-99.9,29.67,South,181,19.0,21.0,-999,-99.99,,,-99.99,,2013-05-24 11:23:00,
2013-05-24 07:32:00,62.0,-99.9,29.68,South,185,19.0,22.0,-999,-99.99,,,-99.99,,2013-05-24 11:32:00,
2013-05-24 07:42:00,62.0,-99.9,29.68,South,177,19.0,21.0,-999,-99.99,,,-99.99,,2013-05-24 11:42:00,
2013-05-24 07:52:00,62.0,-99.9,29.68,South,170,19.0,21.0,-999,-99.99,,,-99.99,,2013-05-24 11:52:00,
2013-05-24 08:02:00,62.0,-99.9,29.68,SSE,163,15.0,17.0,-999,-99.99,,,-99.99,,2013-05-24 12:02:00,
2013-05-24 08:12:00,61.0,-99.9,29.69,SSE,153,16.0,18.0,-999,-99.99,,,-99.99,,2013-05-24 12:12:00,
2013-05-24 08:22:00,61.0,-99.9,29.70,SSE,147,13.0,15.0,-999,-99.99,,,-99.99,,2013-05-24 12:22:00,
2013-05-24 08:33:00,61.0,-99.9,29.70,SSE,149,16.0,17.0,-999,-99.99,,,-99.99,,2013-05-24 12:33:00,
2013-05-24 08:42:00,61.0,-99.9,29.70,SSE,153,17.0,18.0,-999,-99.99,,,-99.99,,2013-05-24 12:42:00,
2013-05-24 08:52:00,61.0,-99.9,29.71,SSE,159,16.0,19.0,-999,-99.99,,,-99.99,,2013-05-24 12:52:00,
2013-05-24 09:02:00,61.0,-99.9,29.72,SSE,161,15.0,17.0,-999,-99.99,,,-99.99,,2013-05-24 13:02:00,
2013-05-24 09:11:00,61.0,-99.9,29.72,SSE,165,14.0,15.0,-999,-99.99,,,-99.99,,2013-05-24 13:11:00,
2013-05-24 09:22:00,60.0,-99.9,29.72,SSE,150,16.0,17.0,-999,-99.99,,,-99.99,,2013-05-24 13:22:00,
2013-05-24 09:32:00,61.0,-99.9,29.71,SSE,148,15.0,17.0,-999,-99.99,,,-99.99,,2013-05-24 13:32:00,
2013-05-24 09:42:00,61.0,-99.9,29.72,SSE,151,16.0,17.0,-999,-99.99,,,-99.99,,2013-05-24 13:42:00,
2013-05-24 09:52:00,60.0,-99.9,29.72,SSE,160,16.0,17.0,-999,-99.99,,,-99.99,,2013-05-24 13:52:00,
2013-05-24 10:02:00,61.0,-99.9,29.72,SSE,163,14.0,15.0,-999,-99.99,,,-99.99,,2013-05-24 14:02:00,
2013-05-24 10:11:00,61.0,-99.9,29.72,SSE,152,13.0,15.0,-999,-99.99,,,-99.99,,2013-05-24 14:11:00,
2013-05-24 10:22:00,60.0,-99.9,29.72,SE,143,16.0,17.0,-999,-99.99,,,-99.99,,2013-05-24 14:22:00,
2013-05-24 10:32:00,60.0,-99.9,29.72,SSE,150,14.0,16.0,-999,-99.99,,,-99.99,,2013-05-24 14:32:00,
2013-05-24 10:42:00,60.0,-99.9,29.72,SSE,151,13.0,15.0,-999,-99.99,,,-99.99,,2013-05-24 14:42:00,
2013-05-24 10:52:00,60.0,-99.9,29.72,SE,146,13.0,14.0,-999,-99.99,,,-99.99,,2013-05-24 14:52:00,
2013-05-24 11:02:00,60.0,-99.9,29.72,SSE,148,13.0,14.0,-999,-99.99,,,-99.99,,2013-05-24 15:02:00,
2013-05-24 11:11:00,60.0,-99.9,29.72,SSE,148,12.0,13.0,-999,-99.99,,,-99.99,,2013-05-24 15:11:00,
2013-05-24 11:22:00,60.0,-99.9,29.72,SSE,151,12.0,13.0,-999,-99.99,,,-99.99,,2013-05-24 15:22:00,
2013-05-24 11:33:00,60.0,-99.9,29.72,SSE,152,12.0,13.0,-999,-99.99,,,-99.99,,2013-05-24 15:33:00,
2013-05-24 11:43:00,60.0,-99.9,29.72,SE,142,11.0,12.0,-999,-99.99,,,-99.99,,2013-05-24 15:43:00,
2013-05-24 11:53:00,60.0,-99.9,29.72,SSE,147,10.0,11.0,-999,-99.99,,,-99.99,,2013-05-24 15:53:00,
2013-05-24 12:03:00,60.0,-99.9,29.72,SSE,151,10.0,11.0,-999,-99.99,,,-99.99,,2013-05-24 16:03:00,
2013-05-24 12:13:00,60.0,-99.9,29.72,SE,143,9.0,11.0,-999,-99.99,,,-99.99,,2013-05-24 16:13:00,
2013-05-24 12:22:00,60.0,-99.9,29.72,SE,138,9.0,10.0,-999,-99.99,,,-99.99,,2013-05-24 16:22:00,
2013-05-24 12:33:00,61.0,-99.9,29.71,SE,140,8.0,9.0,-999,-99.99,,,-99.99,,2013-05-24 16:33:00,
2013-05-24 12:42:00,61.0,-99.9,29.71,SE,145,7.0,7.0,-999,-99.99,,,-99.99,,2013-05-24 16:42:00,
2013-05-24 12:52:00,61.0,-99.9,29.71,SE,144,6.0,7.0,-999,-99.99,,,-99.99,,2013-05-24 16:52:00,
2013-05-24 13:02:00,61.0,-99.9,29.71,SE,143,7.0,7.0,-999,-99.99,,,-99.99,,2013-05-24 17:02:00,
2013-05-24 13:12:00,62.0,-99.9,29.71,SE,141,8.0,9.0,-999,-99.99,,,-99.99,,2013-05-24 17:12:00,
2013-05-24 13:22:00,62.0,-99.9,29.71,SSE,147,8.0,10.0,-999,-99.99,,,-99.99,,2013-05-24 17:22:00,
2013-05-24 13:32:00,62.0,-99.9,29.72,SSE,156,8.0,9.0,-999,-99.99,,,-99.99,,2013-05-24 17:32:00,
2013-05-24 13:42:00,62.0,-99.9,29.71,SSE,149,8.0,9.0,-999,-99.99,,,-99.99,,2013-05-24 17:42:00,
2013-05-24 13:52:00,62.0,-99.9,29.71,SE,135,7.0,9.0,-999,-99.99,,,-99.99,,2013-05-24 17:52:00,
2013-05-24 14:01:00,62.0,-99.9,29.71,SSE,148,6.0,7.0,-999,-99.99,,,-99.99,,2013-05-24 18:01:00,
2013-05-24 14:12:00,62.0,-99.9,29.71,SSE,153,9.0,10.0,-999,-99.99,,,-99.99,,2013-05-24 18:12:00,
2013-05-24 14:22:00,62.0,-99.9,29.71,SE,139,8.0,9.0,-999,-99.99,,,-99.99,,2013-05-24 18:22:00,
2013-05-24 14:32:00,62.0,-99.9,29.71,SE,134,8.0,9.0,-999,-99.99,,,-99.99,,2013-05-24 18:32:00,
2013-05-24 14:42:00,63.0,-99.9,29.70,SE,137,10.0,11.0,-999,-99.99,,,-99.99,,2013-05-24 18:42:00,
2013-05-24 14:52:00,63.0,-99.9,29.71,SE,145,8.0,10.0,-999,-99.99,,,-99.99,,2013-05-24 18:52:00,
2013-05-24 15:02:00,63.0,-99.9,29.70,SE,130,10.0,11.0,-999,-99.99,,,-99.99,,2013-05-24 19:02:00,
2013-05-24 15:11:00,63.0,-99.9,29.70,SE,130,10.0,11.0,-999,-99.99,,,-99.99,,2013-05-24 19:11:00,
2013-05-24 15:22:00,63.0,-99.9,29.70,SE,137,9.0,10.0,-999,-99.99,,,-99.99,,2013-05-24 19:22:00,
2013-05-24 15:32:00,63.0,-99.9,29.69,SE,136,11.0,11.0,-999,-99.99,,,-99.99,,2013-05-24 19:32:00,
2013-05-24 15:42:00,63.0,-99.9,29.69,SE,130,11.0,12.0,-999,-99.99,,,-99.99,,2013-05-24 19:42:00,
2013-05-24 15:52:00,64.0,-99.9,29.69,ESE,120,11.0,11.0,-999,-99.99,,,-99.99,,2013-05-24 19:52:00,
2013-05-24 16:02:00,64.0,-99.9,29.69,SE,134,11.0,11.0,-999,-99.99,,,-99.99,,2013-05-24 20:02:00,
2013-05-24 16:12:00,64.0,-99.9,29.69,SE,133,9.0,10.0,-999,-99.99,,,-99.99,,2013-05-24 20:12:00,
2013-05-24 16:22:00,64.0,-99.9,29.69,SE,133,9.0,10.0,-999,-99.99,,,-99.99,,2013-05-24 20:22:00,
2013-05-24 16:42:00,65.0,-99.9,29.69,SE,142,11.0,12.0,-999,-99.99,,,-99.99,,2013-05-24 20:42:00,
2013-05-24 16:52:00,65.0,-99.9,29.68,SE,139,11.0,12.0,-999,-99.99,,,-99.99,,2013-05-24 20:52:00,
2013-05-24 17:01:00,65.0,-99.9,29.69,SE,138,10.0,11.0,-999,-99.99,,,-99.99,,2013-05-24 21:01:00,
2013-05-24 17:12:00,65.0,-99.9,29.69,SE,141,11.0,12.0,-999,-99.99,,,-99.99,,2013-05-24 21:12:00,
2013-05-24 17:22:00,65.0,-99.9,29.69,SSE,151,12.0,13.0,-999,-99.99,,,-99.99,,2013-05-24 21:22:00,
2013-05-24 17:33:00,65.0,-99.9,29.69,SSE,147,10.0,12.0,-999,-99.99,,,-99.99,,2013-05-24 21:33:00,
2013-05-24 17:43:00,65.0,-99.9,29.70,SSW,195,10.0,13.0,-999,-99.99,,,-99.99,,2013-05-24 21:43:00,
2013-05-24 17:53:00,65.0,-99.9,29.70,NW,322,10.0,12.0,-999,-99.99,,,-99.99,,2013-05-24 21:53:00,
2013-05-24 18:03:00,65.0,-99.9,29.69,NW,314,10.0,13.0,-999,-99.99,,,-99.99,,2013-05-24 22:03:00,
2013-05-24 18:12:00,65.0,-99.9,29.68,NW,319,14.0,16.0,-999,-99.99,,,-99.99,,2013-05-24 22:12:00,
2013-05-24 18:22:00,64.0,-99.9,29.69,WNW,298,15.0,16.0,-999,-99.99,,,-99.99,,2013-05-24 22:22:00,
2013-05-24 18:33:00,64.0,-99.9,29.70,WNW,301,11.0,13.0,-999,-99.99,,,-99.99,,2013-05-24 22:33:00,
2013-05-24 18:42:00,64.0,-99.9,29.70,West,279,10.0,12.0,-999,-99.99,,,-99.99,,2013-05-24 22:42:00,
2013-05-24 18:52:00,64.0,-99.9,29.71,WNW,291,13.0,15.0,-999,-99.99,,,-99.99,,2013-05-24 22:52:00,
2013-05-24 19:02:00,64.0,-99.9,29.71,WNW,291,15.0,17.0,-999,-99.99,,,-99.99,,2013-05-24 23:02:00,
2013-05-24 19:11:00,64.0,-99.9,29.72,WNW,290,13.0,18.0,-999,-99.99,,,-99.99,,2013-05-24 23:11:00,
2013-05-24 19:22:00,64.0,-99.9,29.72,NW,319,21.0,24.0,-999,-99.99,,,-99.99,,2013-05-24 23:22:00,
2013-05-24 19:32:00,63.0,-99.9,29.72,NNW,331,21.0,23.0,-999,-99.99,,,-99.99,,2013-05-24 23:32:00,
2013-05-24 19:42:00,62.0,-99.9,29.73,NW,312,19.0,21.0,-999,-99.99,,,-99.99,,2013-05-24 23:42:00,
2013-05-24 19:52:00,61.0,-99.9,29.73,NW,307,22.0,25.0,-999,-99.99,,,-99.99,,2013-05-24 23:52:00,
2013-05-24 20:01:00,61.0,-99.9,29.73,NW,308,22.0,25.0,-999,-99.99,,,-99.99,,2013-05-25 00:01:00,
2013-05-24 20:12:00,60.0,-99.9,29.74,NW,311,21.0,24.0,-999,-99.99,,,-99.99,,2013-05-25 00:12:00,
2013-05-24 20:22:00,59.0,-99.9,29.74,NW,308,22.0,25.0,-999,-99.99,,,-99.99,,2013-05-25 00:22:00,
2013-05-24 20:32:00,59.0,-99.9,29.74,NW,310,26.0,27.0,-999,-99.99,,,-99.99,,2013-05-25 00:32:00,
2013-05-24 20:42:00,58.0,-99.9,29.74,NW,314,23.0,25.0,-999,-99.99,,,-99.99,,2013-05-25 00:42:00,
2013-05-24 20:52:00,58.0,-99.9,29.74,NW,311,23.0,26.0,-999,-99.99,,,-99.99,,2013-05-25 00:52:00,
2013-05-24 21:01:00,58.0,-99.9,29.75,NW,314,23.0,26.0,-999,-99.99,,,-99.99,,2013-05-25 01:01:00,
2013-05-24 21:11:00,57.0,-99.9,29.75,NW,309,20.0,24.0,-999,-99.99,,,-99.99,,2013-05-25 01:11:00,
2013-05-24 21:22:00,57.0,-99.9,29.76,NW,312,17.0,20.0,-999,-99.99,,,-99.99,,2013-05-25 01:22:00,
2013-05-24 21:33:00,56.0,-99.9,29.75,NW,315,19.0,21.0,-999,-99.99,,,-99.99,,2013-05-25 01:33:00,
2013-05-24 21:42:00,57.0,-99.9,29.76,NW,325,19.0,23.0,-999,-99.99,,,-99.99,,2013-05-25 01:42:00,
2013-05-24 21:52:00,56.0,-99.9,29.76,NW,320,20.0,26.0,-999,-99.99,,,-99.99,,2013-05-25 01:52:00,
2013-05-24 22:02:00,56.0,-99.9,29.76,NW,326,20.0,23.0,-999,-99.99,,,-99.99,,2013-05-25 02:02:00,
2013-05-24 22:12:00,56.0,-99.9,29.76,NNW,329,20.0,23.0,-999,-99.99,,,-99.99,,2013-05-25 02:12:00,
2013-05-24 22:22:00,56.0,-99.9,29.77,NNW,331,19.0,22.0,-999,-99.99,,,-99.99,,2013-05-25 02:22:00,
2013-05-24 22:32:00,55.0,-99.9,29.77,NNW,347,21.0,26.0,-999,-99.99,,,-99.99,,2013-05-25 02:32:00,
2013-05-24 22:42:00,55.0,-99.9,29.77,NNW,342,22.0,28.0,-999,-99.99,,,-99.99,,2013-05-25 02:42:00,
2013-05-24 22:52:00,55.0,-99.9,29.78,NNW,344,20.0,27.0,-999,-99.99,,,-99.99,,2013-05-25 02:52:00,
2013-05-24 23:02:00,54.0,-99.9,29.78,NNW,338,18.0,24.0,-999,-99.99,,,-99.99,,2013-05-25 03:02:00,
2013-05-24 23:12:00,54.0,-99.9,29.77,NNW,331,23.0,26.0,-999,-99.99,,,-99.99,,2013-05-25 03:12:00,
2013-05-24 23:22:00,53.0,-99.9,29.77,NNW,333,23.0,27.0,-999,-99.99,,,-99.99,,2013-05-25 03:22:00,
2013-05-24 23:33:00,53.0,-99.9,29.77,NW,322,22.0,26.0,-999,-99.99,,,-99.99,,2013-05-25 03:33:00,
2013-05-24 23:43:00,53.0,-99.9,29.78,NNW,330,23.0,28.0,-999,-99.99,,,-99.99,,2013-05-25 03:43:00,
2013-05-24 23:53:00,53.0,-99.9,29.78,NW,326,23.0,26.0,-999,-99.99,,,-99.99,,2013-05-25 03:53:00,